Skip Navigation Links
NOAA logo - Click to go to the NOAA homepage
NOAA's National Weather Service
Alaska Aviation Weather Unit
  NWS logo - Click to go to the NWS homepage
Left Navbar Graphic     19 AKDT = 03 GMT

   
NOAA is celebrating 200 years of science, service, and stewardship. Visit the NOAA 200th celebration Web site to learn more.
USA.gov is the U.S. Government's official Web portal to all Federal, state and local government Web resources and services.
Facebook
NWS on Facebook

Important Change Regarding the AAWU Web Presence

 

Over the last several months, the AAWU has been working to navigate its webpages to a nationally supported server. Security, as well as other needs, have necessitated the change.  In the process, we have made an effort to enhance the functionality of our website, as well as some of our products. As of June 20, 2017, aawu.arh.noaa.gov will be discontinued. The new AAWU web address is weather.gov/aawu. It is now live and will run in-parallel with the old site until it is discontinued. Please send any feedback or questions regarding the new webpages to nws.ar.aawu.webauthors@noaa.gov.  Thank you for your patience during this time of transition.
AAWU Home :: Display TAF Add Bookmark
TAF PASD 250102Z 2501/2524 22011KT P6SM SCT025 BKN035
     FM251800 25010KT P6SM VCSH SCT025 BKN050
      AMD LTD TO CLD VIS AND WIND=
METAR PASD 242116Z 22011G23KT 10SM SCT019 BKN025 BKN034 08/01 A3011
 RMK AO1
 WEA: NONE (KH)=

METAR PASD 242136Z 24010G17KT 10SM SCT019 BKN025 BKN034 08/01 A3011 RMK
     AO1 WEA: NONE (KH)=

METAR PASD 242156Z 22012G18KT 10SM SCT022 BKN034 BKN060 09/01 A3011
 RMK AO1
 WEA: NONE (KH)=

METAR PASD 242216Z 22009KT 10SM SCT022 BKN034 BKN060 09/01 A3012 RMK AO1
     WEA: NONE (KH)=

METAR PASD 242236Z 22013KT 10SM SCT022 BKN034 BKN060 08/02 A3012 RMK AO1
     WEA: NONE (KH)=

METAR PASD 242256Z 21015G20KT 10SM BKN035 BKN044 BKN060 08/01 A3013 RMK
     AO1 WEA: NONE (KH)=

METAR PASD 242316Z 23012G22KT 10SM BKN035 BKN044 BKN060 09/01 A3013 RMK
     AO1 WEA: NONE (KH)=

METAR PASD 242336Z 22013G20KT 10SM SCT020 BKN032 BKN045 09/01 A3013 RMK
     AO1 WEA: NONE (KH)=

METAR PASD 250016Z 23011G17KT 10SM SCT020 BKN033 BKN045 08/01 A3013 RMK
     AO1 WEA: NONE (KH)=

METAR PASD 250036Z 21009G14KT 10SM SCT020 BKN033 BKN045 09/01 A3012 RMK
     AO1 WEA: NONE (KH)=

METAR PASD 250056Z 21010KT 10SM SCT023 BKN039 BKN050 09/00 A3012 RMK AO1
     WEA: NONE (KH)=

METAR PASD 250116Z 21011G17KT 10SM SCT023 BKN039 BKN050 09/01 A3012 RMK
     AO1 WEA: NONE (KH)=

METAR PASD 250136Z 23010G16KT 10SM SCT023 BKN039 BKN050 09/01 A3012
 RMK AO1
 WEA: NONE (KH)=

METAR PASD 250156Z 23009KT 10SM SCT019 BKN036 BKN050 08/01 A3012 RMK AO1
     WEA: NONE (KH)=

METAR PASD 250216Z 24009G15KT 10SM SCT019 BKN036 BKN050 09/01 A3012 RMK
     AO1 WEA: NONE (KH)=

METAR PASD 250236Z 22013G19KT 10SM SCT019 BKN036 BKN050 09/00 A3013 RMK
     AO1 WEA: NONE (KH)=

METAR PASD 250256Z 21013G17KT 10SM SCT020 SCT031 BKN041 09/01 A3013
 RMK AO1
 WEA: NONE LAST (KH)=


NOAA's National Weather Service
Alaska Aviation Weather Unit
6930 Sand Lake Road
Anchorage, AK 99502-1845
Disclaimer
Credits
Glossary
Privacy Policy
About Us
Career Opportunities
Contact AAWU Internet Services Site last modified: April, 17th 2012